createdAt,value
2018-08-19T00:00:56.251Z,60.10
2018-08-19T00:03:26.794Z,60.40
2018-08-19T00:05:57.314Z,60.70
2018-08-19T00:08:27.814Z,60.80
2018-08-19T00:11:09.908Z,61.00
2018-08-19T00:13:40.929Z,61.20
2018-08-19T00:16:12.256Z,61.20
2018-08-19T00:18:42.746Z,61.20
2018-08-19T00:21:13.261Z,61.20
2018-08-19T00:23:49.580Z,61.20
2018-08-19T00:26:20.073Z,61.30
2018-08-19T00:28:50.582Z,61.30
2018-08-19T00:31:20.905Z,61.60
2018-08-19T00:33:51.380Z,61.50
2018-08-19T00:36:31.724Z,61.50
2018-08-19T00:39:02.049Z,61.60
2018-08-19T00:41:32.324Z,61.60
2018-08-19T00:44:02.723Z,61.50
2018-08-19T00:46:35.243Z,61.70
2018-08-19T00:49:07.460Z,62.00
2018-08-19T00:51:46.549Z,62.00
2018-08-19T00:54:20.477Z,62.00
2018-08-19T00:56:53.207Z,62.20
2018-08-19T00:59:23.648Z,62.40
2018-08-19T01:01:54.089Z,62.20
2018-08-19T01:04:24.920Z,62.60
2018-08-19T01:06:56.490Z,63.00
2018-08-19T01:09:30.815Z,63.10
2018-08-19T01:12:01.433Z,63.20
2018-08-19T01:14:31.864Z,63.10
2018-08-19T01:17:02.201Z,63.10
2018-08-19T01:19:32.577Z,63.40
2018-08-19T01:22:02.979Z,63.40
2018-08-19T01:24:33.675Z,63.50
2018-08-19T01:27:04.023Z,63.40
2018-08-19T01:29:39.465Z,63.60
2018-08-19T01:32:12.354Z,63.60
2018-08-19T01:34:45.811Z,63.60
2018-08-19T01:37:16.495Z,63.70
2018-08-19T01:39:46.825Z,64.00
2018-08-19T01:42:17.261Z,64.10
2018-08-19T01:44:47.734Z,64.20
2018-08-19T01:47:18.097Z,64.20
2018-08-19T01:49:48.400Z,64.20
2018-08-19T01:52:18.816Z,64.50
2018-08-19T01:54:49.199Z,64.90
2018-08-19T01:57:19.451Z,65.20
2018-08-19T01:59:49.852Z,65.30
2018-08-19T02:02:20.168Z,65.20
2018-08-19T02:04:56.438Z,65.60
2018-08-19T02:07:27.178Z,65.60
2018-08-19T02:10:04.534Z,65.70
2018-08-19T02:12:39.688Z,65.80
2018-08-19T02:15:11.162Z,65.80
2018-08-19T02:17:46.575Z,66.20
2018-08-19T02:20:17.260Z,66.50
2018-08-19T02:22:52.338Z,66.70
2018-08-19T02:25:22.678Z,66.70
2018-08-19T02:27:52.968Z,66.90
2018-08-19T02:30:23.319Z,67.20
2018-08-19T02:32:56.057Z,67.70
2018-08-19T02:35:26.537Z,67.90
2018-08-19T02:37:56.981Z,68.10
2018-08-19T02:40:32.481Z,68.10
2018-08-19T02:43:02.937Z,68.00
2018-08-19T02:45:33.418Z,68.20
2018-08-19T02:48:03.925Z,68.50
2018-08-19T02:50:34.261Z,68.70
2018-08-19T02:53:04.735Z,68.70
2018-08-19T02:55:35.113Z,68.70
2018-08-19T02:58:10.352Z,69.00
2018-08-19T03:00:40.774Z,69.10
2018-08-19T03:03:11.098Z,69.40
2018-08-19T03:05:45.515Z,69.40
2018-08-19T03:08:15.763Z,69.50
2018-08-19T03:10:46.492Z,69.60
2018-08-19T03:13:16.767Z,70.20
2018-08-19T03:15:47.154Z,70.30
2018-08-19T03:18:17.649Z,69.90
2018-08-19T03:20:47.933Z,70.20
2018-08-19T03:23:18.180Z,70.60
2018-08-19T03:25:48.573Z,70.90
2018-08-19T03:28:18.848Z,71.10
2018-08-19T03:31:04.557Z,71.00
2018-08-19T03:33:34.769Z,71.00
2018-08-19T03:36:05.087Z,71.30
2018-08-19T03:38:35.405Z,71.30
2018-08-19T03:41:05.744Z,71.10
2018-08-19T03:43:36.131Z,71.00
2018-08-19T03:46:11.357Z,71.00
2018-08-19T03:48:41.708Z,71.40
2018-08-19T03:51:14.183Z,71.20
2018-08-19T03:53:45.073Z,71.50
2018-08-19T03:56:20.388Z,71.60
2018-08-19T03:58:51.575Z,71.70
2018-08-19T04:01:40.314Z,71.90
2018-08-19T04:04:11.467Z,72.10
2018-08-19T04:06:41.842Z,72.40
2018-08-19T04:09:12.120Z,72.30
2018-08-19T04:11:42.510Z,72.60
2018-08-19T04:14:28.373Z,73.00
2018-08-19T04:17:01.072Z,73.20
2018-08-19T04:19:31.568Z,73.20
2018-08-19T04:22:04.392Z,73.10
2018-08-19T04:29:30.715Z,73.40
2018-08-19T04:32:01.007Z,72.90
2018-08-19T04:34:31.264Z,72.90
2018-08-19T04:37:01.509Z,73.00
2018-08-19T04:39:31.841Z,73.30
2018-08-19T04:42:02.159Z,73.40
2018-08-19T04:44:32.990Z,73.40
2018-08-19T04:47:21.207Z,73.50
2018-08-19T04:49:52.945Z,73.50
2018-08-19T04:52:24.232Z,73.60
2018-08-19T04:54:55.789Z,74.00
2018-08-19T04:57:26.073Z,74.00
2018-08-19T04:59:56.378Z,74.10
2018-08-19T05:02:26.716Z,74.40
2018-08-19T05:04:57.041Z,74.60
2018-08-19T05:07:27.260Z,74.50
2018-08-19T05:09:57.535Z,74.70
2018-08-19T05:12:27.816Z,75.00
2018-08-19T05:14:58.258Z,75.20
2018-08-19T05:17:28.573Z,75.40
2018-08-19T05:20:18.516Z,75.40
2018-08-19T05:22:48.872Z,75.40
2018-08-19T05:25:19.209Z,75.50
2018-08-19T05:27:57.433Z,75.30
2018-08-19T05:30:28.197Z,75.70
2018-08-19T05:33:03.401Z,75.80
2018-08-19T05:35:34.802Z,76.00
2018-08-19T05:38:05.188Z,76.20
2018-08-19T05:40:35.474Z,76.50
2018-08-19T05:43:05.798Z,76.50
2018-08-19T05:45:41.393Z,76.80
2018-08-19T05:48:13.229Z,76.90
2018-08-19T05:50:43.573Z,77.00
2018-08-19T05:53:13.895Z,76.90
2018-08-19T05:55:44.276Z,76.70
2018-08-19T05:58:14.654Z,76.60
2018-08-19T06:00:48.660Z,76.60
2018-08-19T06:03:18.935Z,76.60
2018-08-19T06:05:49.400Z,76.10
2018-08-19T06:08:19.597Z,76.20
2018-08-19T06:10:49.869Z,76.00
2018-08-19T06:13:20.188Z,76.20
2018-08-19T06:15:50.562Z,76.50
2018-08-19T06:18:20.874Z,76.00
2018-08-19T06:20:51.244Z,75.50
2018-08-19T06:23:23.033Z,75.50
2018-08-19T06:25:53.397Z,75.00
2018-08-19T06:28:23.748Z,74.90
2018-08-19T06:30:54.083Z,74.80
2018-08-19T06:33:24.477Z,74.50
2018-08-19T06:35:54.851Z,74.40
2018-08-19T06:38:25.297Z,74.30
2018-08-19T06:40:55.787Z,73.80
2018-08-19T06:43:26.078Z,73.30
2018-08-19T06:45:56.451Z,73.10
2018-08-19T06:48:26.797Z,72.70
2018-08-19T06:50:57.295Z,72.10
2018-08-19T06:53:30.788Z,71.70
2018-08-19T06:56:01.239Z,71.30
2018-08-19T06:58:31.518Z,70.60
2018-08-19T07:01:01.871Z,70.10
2018-08-19T07:03:32.475Z,69.60
2018-08-19T07:06:11.353Z,69.20
2018-08-19T07:08:41.845Z,68.70
2018-08-19T07:11:12.327Z,68.10
2018-08-19T07:13:42.815Z,67.40
2018-08-19T07:16:13.283Z,67.30
2018-08-19T07:18:43.792Z,67.00
2018-08-19T07:21:14.057Z,66.40
2018-08-19T07:23:44.476Z,66.00
2018-08-19T07:26:14.880Z,65.30
2018-08-19T07:28:45.235Z,64.60
2018-08-19T07:31:15.652Z,64.10
2018-08-19T07:33:45.957Z,63.90
2018-08-19T07:36:16.453Z,63.70
2018-08-19T07:38:46.719Z,63.20
2018-08-19T07:41:17.198Z,62.90
2018-08-19T07:43:47.677Z,62.70
2018-08-19T07:46:18.733Z,62.00
2018-08-19T07:48:50.010Z,61.50
2018-08-19T07:51:23.644Z,60.60
2018-08-19T07:53:53.897Z,60.30
2018-08-19T07:56:24.112Z,59.80
2018-08-19T07:59:24.802Z,59.70
2018-08-19T08:01:55.033Z,59.60
2018-08-19T08:04:33.547Z,59.50
2018-08-19T08:07:03.707Z,59.10
2018-08-19T08:09:33.855Z,58.70
2018-08-19T08:12:04.160Z,58.40
2018-08-19T08:14:35.514Z,58.30
2018-08-19T08:17:08.030Z,58.20
2018-08-19T08:19:41.237Z,58.30
2018-08-19T08:22:15.808Z,58.00
2018-08-19T08:24:46.090Z,57.50
2018-08-19T08:27:16.308Z,57.50
2018-08-19T08:29:46.837Z,57.00
2018-08-19T08:32:17.033Z,56.60
2018-08-19T08:34:47.205Z,56.30
2018-08-19T08:37:17.538Z,55.80
2018-08-19T08:39:49.974Z,55.90
2018-08-19T08:42:20.424Z,55.80
2018-08-19T08:44:50.579Z,55.50
2018-08-19T08:47:20.849Z,55.10
2018-08-19T08:49:51.050Z,55.60
2018-08-19T08:52:24.687Z,55.00
2018-08-19T08:54:59.790Z,54.30
2018-08-19T08:57:30.155Z,54.60
2018-08-19T09:00:00.677Z,54.10
2018-08-19T09:02:41.773Z,54.10
2018-08-19T09:05:13.184Z,54.40
2018-08-19T09:07:43.578Z,54.40
2018-08-19T09:10:15.204Z,54.20
2018-08-19T09:12:54.920Z,54.20
2018-08-19T09:15:25.149Z,54.20
2018-08-19T09:17:55.417Z,54.00
2018-08-19T09:20:25.591Z,54.00
2018-08-19T09:22:55.811Z,53.60
2018-08-19T09:25:26.062Z,54.00
2018-08-19T09:27:56.862Z,53.90
2018-08-19T09:30:42.337Z,54.10
2018-08-19T09:33:13.447Z,53.80
2018-08-19T09:35:44.266Z,53.30
2018-08-19T09:38:21.165Z,53.40
2018-08-19T09:40:51.437Z,53.20
2018-08-19T09:43:21.621Z,52.70
2018-08-19T09:45:51.839Z,52.20
2018-08-19T09:48:22.179Z,51.50
2018-08-19T09:50:53.594Z,51.20
2018-08-19T09:53:24.160Z,50.90
2018-08-19T09:55:59.628Z,51.20
2018-08-19T09:58:29.901Z,51.20
2018-08-19T10:01:05.251Z,51.40
2018-08-19T10:03:35.493Z,50.80
2018-08-19T10:06:06.178Z,51.30
2018-08-19T10:08:36.681Z,51.20
2018-08-19T10:11:08.741Z,51.10
2018-08-19T10:13:38.915Z,50.90
2018-08-19T10:16:09.055Z,51.00
2018-08-19T10:18:39.433Z,50.80
2018-08-19T10:21:14.017Z,50.70
2018-08-19T10:23:44.204Z,50.80
2018-08-19T10:26:14.514Z,50.60
2018-08-19T10:28:44.622Z,50.70
2018-08-19T10:31:19.452Z,50.50
2018-08-19T10:33:52.657Z,50.60
2018-08-19T10:36:22.848Z,50.50
2018-08-19T10:38:53.075Z,50.10
2018-08-19T10:41:24.130Z,50.10
2018-08-19T10:43:54.485Z,50.10
2018-08-19T10:46:24.690Z,49.60
2018-08-19T10:48:54.878Z,49.00
2018-08-19T10:51:25.095Z,48.70
2018-08-19T10:53:55.253Z,49.10
2018-08-19T10:56:27.049Z,49.10
2018-08-19T10:58:59.611Z,49.00
2018-08-19T11:01:30.235Z,48.70
2018-08-19T11:04:00.650Z,48.70
2018-08-19T11:06:31.086Z,48.00
2018-08-19T11:09:01.312Z,47.70
2018-08-19T11:11:34.155Z,47.50
2018-08-19T11:14:10.309Z,47.80
2018-08-19T11:16:40.514Z,47.70
2018-08-19T11:19:10.750Z,47.90
2018-08-19T11:21:41.313Z,47.70
2018-08-19T11:24:19.318Z,47.70
2018-08-19T11:26:54.741Z,47.70
2018-08-19T11:29:24.981Z,47.60
2018-08-19T11:31:55.210Z,47.70
2018-08-19T11:34:25.338Z,47.40
2018-08-19T11:36:55.621Z,47.40
2018-08-19T11:39:31.809Z,47.40
2018-08-19T11:42:01.983Z,47.30
2018-08-19T11:44:35.715Z,46.90
2018-08-19T11:47:05.929Z,46.60
2018-08-19T11:49:36.191Z,46.10
2018-08-19T11:52:06.468Z,46.60
2018-08-19T11:54:36.649Z,46.40
2018-08-19T11:57:10.094Z,46.40
2018-08-19T11:59:42.462Z,46.00
2018-08-19T12:02:15.987Z,46.30
2018-08-19T12:04:46.475Z,46.30
2018-08-19T12:07:17.160Z,46.10
2018-08-19T12:09:54.866Z,46.10
2018-08-19T12:12:55.775Z,45.90
2018-08-19T12:15:26.029Z,45.90
2018-08-19T12:17:56.260Z,46.00
2018-08-19T12:20:34.491Z,45.90
2018-08-19T12:23:04.740Z,45.90
2018-08-19T12:25:35.095Z,45.80
2018-08-19T12:28:05.367Z,45.70
2018-08-19T12:30:35.550Z,45.30
2018-08-19T12:33:22.737Z,45.40
2018-08-19T12:35:56.474Z,44.80
2018-08-19T12:38:27.032Z,44.80
2018-08-19T12:40:57.325Z,44.50
2018-08-19T12:43:27.551Z,44.20
2018-08-19T12:45:58.596Z,44.10
2018-08-19T12:48:28.857Z,44.20
2018-08-19T12:51:05.869Z,44.50
2018-08-19T12:53:42.548Z,43.90
2018-08-19T12:56:13.896Z,44.00
2018-08-19T12:58:44.052Z,44.10
2018-08-19T13:01:14.281Z,44.00
2018-08-19T13:03:44.539Z,43.80
2018-08-19T13:06:14.760Z,43.60
2018-08-19T13:08:44.952Z,43.60
2018-08-19T13:11:15.058Z,43.50
2018-08-19T13:13:45.904Z,43.40
2018-08-19T13:16:16.050Z,43.50
2018-08-19T13:18:46.151Z,43.40
2018-08-19T13:21:19.217Z,43.10
2018-08-19T13:23:49.333Z,43.10
2018-08-19T13:26:19.556Z,42.30
2018-08-19T13:28:52.643Z,42.50
2018-08-19T13:31:27.197Z,42.50
2018-08-19T13:33:57.360Z,42.50
2018-08-19T13:36:27.540Z,42.60
2018-08-19T13:38:57.732Z,42.40
2018-08-19T13:41:27.848Z,42.30
2018-08-19T13:43:58.003Z,42.30
2018-08-19T13:46:28.139Z,42.10
2018-08-19T13:48:58.343Z,42.10
2018-08-19T13:51:28.569Z,42.00
2018-08-19T13:53:59.590Z,42.00
2018-08-19T13:56:30.162Z,41.70
2018-08-19T13:59:01.409Z,41.50
2018-08-19T14:01:31.567Z,41.70
2018-08-19T14:04:01.742Z,41.60
2018-08-19T14:06:31.960Z,41.50
2018-08-19T14:09:02.112Z,41.30
2018-08-19T14:11:32.316Z,41.20
2018-08-19T14:14:02.429Z,41.20
2018-08-19T14:16:33.271Z,41.20
2018-08-19T14:19:03.401Z,41.30
2018-08-19T14:21:33.657Z,40.90
2018-08-19T14:24:04.309Z,41.00
2018-08-19T14:26:35.845Z,40.70
2018-08-19T14:29:06.175Z,40.60
2018-08-19T14:31:36.406Z,40.70
2018-08-19T14:34:06.580Z,40.70
2018-08-19T14:36:36.774Z,40.50
2018-08-19T14:39:08.043Z,40.40
2018-08-19T14:41:38.278Z,40.30
2018-08-19T14:44:08.592Z,40.20
2018-08-19T14:46:39.490Z,40.30
2018-08-19T14:49:17.135Z,40.20
2018-08-19T14:51:57.500Z,40.00
2018-08-19T14:54:31.550Z,40.00
2018-08-19T14:57:01.797Z,39.80
2018-08-19T14:59:31.891Z,39.70
2018-08-19T15:02:02.242Z,39.60
2018-08-19T15:04:32.574Z,40.00
2018-08-19T15:07:02.756Z,40.00
2018-08-19T15:09:33.881Z,39.40
2018-08-19T15:12:11.957Z,39.60
2018-08-19T15:14:42.243Z,39.40
2018-08-19T15:17:12.821Z,39.40
2018-08-19T15:19:47.624Z,39.30
2018-08-19T15:22:18.019Z,39.00
2018-08-19T15:24:48.212Z,39.00
2018-08-19T15:27:18.539Z,39.10
2018-08-19T15:29:52.865Z,39.10
2018-08-19T15:32:25.546Z,38.90
2018-08-19T15:35:00.025Z,38.90
2018-08-19T15:37:30.158Z,38.80
2018-08-19T15:40:00.289Z,38.90
2018-08-19T15:42:30.352Z,38.80
2018-08-19T15:45:00.428Z,38.90
2018-08-19T15:47:30.615Z,38.80
2018-08-19T15:50:13.573Z,38.90
2018-08-19T15:52:43.780Z,38.90
2018-08-19T15:55:14.195Z,38.80
2018-08-19T15:57:44.357Z,38.90
2018-08-19T16:00:14.511Z,38.90
2018-08-19T16:02:44.664Z,39.00
2018-08-19T16:05:17.772Z,39.10
2018-08-19T16:07:48.067Z,39.00
2018-08-19T16:10:18.218Z,39.20
2018-08-19T16:12:51.179Z,39.20
2018-08-19T16:15:28.194Z,39.10
2018-08-19T16:17:59.025Z,39.10
2018-08-19T16:20:29.094Z,39.10
2018-08-19T16:22:59.275Z,39.20
2018-08-19T16:25:29.421Z,39.20
2018-08-19T16:27:59.472Z,39.30
2018-08-19T16:30:29.854Z,39.40
2018-08-19T16:32:59.925Z,39.50
2018-08-19T16:35:30.069Z,39.50
2018-08-19T16:38:00.218Z,39.50
2018-08-19T16:40:30.333Z,39.50
2018-08-19T16:43:00.449Z,39.50
2018-08-19T16:45:30.572Z,39.50
2018-08-19T16:48:00.698Z,39.60
2018-08-19T16:50:31.082Z,39.60
2018-08-19T16:53:01.140Z,39.60
2018-08-19T16:55:31.311Z,39.80
2018-08-19T16:58:01.539Z,39.70
2018-08-19T17:00:32.120Z,39.80
2018-08-19T17:03:06.885Z,39.90
2018-08-19T17:05:37.097Z,39.90
2018-08-19T17:08:07.706Z,39.90
2018-08-19T17:10:37.834Z,39.90
2018-08-19T17:13:07.897Z,40.10
2018-08-19T17:15:38.101Z,40.20
2018-08-19T17:18:08.516Z,40.10
2018-08-19T17:20:38.700Z,40.10
2018-08-19T17:23:08.861Z,40.30
2018-08-19T17:25:38.910Z,40.40
2018-08-19T17:28:16.031Z,40.50
2018-08-19T17:30:46.139Z,40.60
2018-08-19T17:33:16.259Z,40.70
2018-08-19T17:35:48.137Z,40.80
2018-08-19T17:38:18.506Z,41.50
2018-08-19T17:40:48.650Z,41.00
2018-08-19T17:43:18.889Z,41.10
2018-08-19T17:45:50.381Z,41.20
2018-08-19T17:48:20.341Z,41.30
2018-08-19T17:50:50.432Z,41.40
2018-08-19T17:53:20.621Z,41.50
2018-08-19T17:55:50.683Z,41.60
2018-08-19T17:58:20.846Z,41.80
2018-08-19T18:00:50.972Z,41.90
2018-08-19T18:03:21.034Z,42.00
2018-08-19T18:05:51.182Z,42.10
2018-08-19T18:08:21.293Z,42.30
2018-08-19T18:10:58.046Z,42.50
2018-08-19T18:13:29.809Z,42.60
2018-08-19T18:15:59.926Z,42.80
2018-08-19T18:18:30.078Z,42.90
2018-08-19T18:21:02.148Z,43.10
2018-08-19T18:23:32.294Z,43.10
2018-08-19T18:26:02.473Z,43.20
2018-08-19T18:28:33.208Z,43.40
2018-08-19T18:33:55.394Z,43.70
2018-08-19T18:36:33.759Z,43.80
2018-08-19T18:39:05.828Z,43.90
2018-08-19T18:41:37.391Z,44.20
2018-08-19T18:44:08.858Z,44.30
2018-08-19T18:46:39.062Z,44.50
2018-08-19T18:49:13.085Z,44.60
2018-08-19T18:51:50.823Z,44.80
2018-08-19T18:54:32.634Z,44.90
2018-08-19T18:57:08.160Z,45.00
2018-08-19T18:59:43.738Z,45.10
2018-08-19T19:02:13.953Z,45.20
2018-08-19T19:07:44.566Z,45.60
2018-08-19T19:10:14.683Z,45.80
2018-08-19T19:12:44.817Z,45.90
2018-08-19T19:15:15.193Z,46.10
2018-08-19T19:17:45.975Z,46.40
2018-08-19T19:20:16.279Z,46.70
2018-08-19T19:23:04.298Z,47.00
2018-08-19T19:25:39.329Z,47.30
2018-08-19T19:28:09.626Z,47.40
2018-08-19T19:30:39.832Z,47.60
2018-08-19T19:33:12.193Z,47.70
2018-08-19T19:35:42.571Z,47.70
2018-08-19T19:38:12.811Z,47.80
2018-08-19T19:40:43.424Z,47.90
2018-08-19T19:43:14.631Z,48.00
2018-08-19T19:45:49.994Z,48.20
2018-08-19T19:48:26.198Z,48.40
2018-08-19T19:50:56.811Z,48.40
2018-08-19T19:53:27.655Z,48.50
2018-08-19T19:56:20.049Z,48.70
2018-08-19T19:58:53.532Z,48.80
2018-08-19T20:01:25.428Z,49.00
2018-08-19T20:03:57.250Z,49.20
2018-08-19T20:06:30.037Z,49.30
2018-08-19T20:09:04.210Z,49.60
2018-08-19T20:11:35.408Z,49.60
2018-08-19T20:14:06.221Z,49.70
2018-08-19T20:16:40.050Z,49.90
2018-08-19T20:19:21.026Z,50.10
2018-08-19T20:21:53.213Z,50.10
2018-08-19T20:24:23.440Z,50.30
2018-08-19T20:26:55.628Z,50.50
2018-08-19T20:29:25.858Z,50.50
2018-08-19T20:31:56.180Z,50.60
2018-08-19T20:34:26.897Z,50.80
2018-08-19T20:36:57.218Z,50.80
2018-08-19T20:39:35.897Z,50.90
2018-08-19T20:42:06.711Z,51.00
2018-08-19T20:44:41.412Z,51.10
2018-08-19T20:47:20.149Z,51.20
2018-08-19T20:49:58.972Z,51.30
2018-08-19T20:52:49.139Z,51.40
2018-08-19T20:55:27.943Z,51.50
2018-08-19T20:58:05.781Z,51.60
2018-08-19T21:00:44.577Z,51.70
2018-08-19T21:03:14.954Z,51.70
2018-08-19T21:05:45.209Z,51.90
2018-08-19T21:08:17.877Z,52.10
2018-08-19T21:10:57.012Z,52.20
2018-08-19T21:13:27.839Z,52.40
2018-08-19T21:15:59.115Z,52.50
2018-08-19T21:18:30.466Z,52.60
2018-08-19T21:21:00.866Z,52.70
2018-08-19T21:23:31.202Z,52.80
2018-08-19T21:26:05.979Z,52.90
2018-08-19T21:28:43.029Z,53.00
2018-08-19T21:31:21.799Z,53.10
2018-08-19T21:33:52.459Z,53.20
2018-08-19T21:36:22.644Z,53.30
2018-08-19T21:38:52.980Z,53.40
2018-08-19T21:41:23.912Z,53.50
2018-08-19T21:43:54.284Z,53.70
2018-08-19T21:46:24.614Z,53.80
2018-08-19T21:48:55.555Z,53.90
2018-08-19T21:51:26.018Z,54.00
2018-08-19T21:53:56.319Z,54.20
2018-08-19T21:56:26.613Z,54.30
2018-08-19T21:58:56.908Z,54.40
2018-08-19T22:01:32.100Z,54.50
2018-08-19T22:04:02.460Z,54.60
2018-08-19T22:06:32.692Z,54.70
2018-08-19T22:09:03.555Z,54.70
2018-08-19T22:11:34.930Z,54.90
2018-08-19T22:14:05.385Z,54.90
2018-08-19T22:16:35.539Z,54.90
2018-08-19T22:19:05.776Z,55.00
2018-08-19T22:21:36.011Z,55.10
2018-08-19T22:24:07.201Z,55.10
2018-08-19T22:26:37.673Z,55.30
2018-08-19T22:29:16.058Z,55.40
2018-08-19T22:31:46.405Z,55.50
2018-08-19T22:34:17.096Z,55.40
2018-08-19T22:36:47.345Z,55.50
2018-08-19T22:39:20.506Z,55.60
2018-08-19T22:41:52.400Z,55.80
2018-08-19T22:44:23.551Z,55.90
2018-08-19T22:46:53.788Z,56.00
2018-08-19T22:49:27.015Z,56.10
2018-08-19T22:52:18.165Z,56.10
2018-08-19T22:54:48.998Z,56.20
2018-08-19T22:57:19.178Z,56.30
2018-08-19T22:59:49.398Z,56.40
2018-08-19T23:02:19.691Z,56.50
2018-08-19T23:04:51.690Z,56.50
2018-08-19T23:07:21.839Z,56.60
2018-08-19T23:09:51.978Z,56.60
2018-08-19T23:12:22.526Z,56.80
2018-08-19T23:15:08.961Z,56.80
2018-08-19T23:17:39.153Z,56.80
2018-08-19T23:20:09.413Z,56.90
2018-08-19T23:22:39.599Z,56.90
2018-08-19T23:25:09.874Z,57.10
2018-08-19T23:27:40.473Z,57.10
2018-08-19T23:30:10.952Z,57.30
2018-08-19T23:32:41.447Z,57.40
2018-08-19T23:35:11.773Z,57.60
2018-08-19T23:37:42.376Z,57.50
2018-08-19T23:40:13.325Z,57.60
2018-08-19T23:42:43.543Z,57.80
2018-08-19T23:45:18.177Z,57.80
2018-08-19T23:47:55.447Z,57.80
2018-08-19T23:50:26.153Z,57.90
2018-08-19T23:52:56.793Z,58.00
2018-08-19T23:55:27.219Z,58.10
2018-08-19T23:57:57.432Z,58.20
